Time;durP1;ratioP1;P1;durP2;ratioP2;P2;SDS_P1;SDS_P2;PMS_P1;PMS_P2;Temp;Humidity;BMP_temperature;BMP_pressure;BME280_temperature;BME280_humidity;BME280_pressure;Samples;Min_cycle;Max_cycle;Signal;HPM_P1;HPM_P2
2022/11/06 00:01:22;;;;;;;1999.90;999.90;;;8.30;99.90;;;;;;6775551;87;20220;-77
2022/11/06 00:11:22;;;;;;;1999.90;999.90;;;8.30;99.90;;;;;;6777304;87;20487;-78
2022/11/06 00:21:25;;;;;;;1999.90;999.90;;;8.20;99.90;;;;;;6771597;87;20205;-77
2022/11/06 00:31:28;;;;;;;1999.90;999.90;;;8.30;99.90;;;;;;6770679;87;20261;-77
2022/11/06 00:41:29;;;;;;;1999.90;999.90;;;8.30;99.90;;;;;;6774244;87;20204;-77
2022/11/06 00:51:34;;;;;;;1999.90;999.90;;;8.30;99.90;;;;;;6773338;87;20518;-77
2022/11/06 01:01:38;;;;;;;1999.90;999.90;;;8.20;99.90;;;;;;6773872;87;20538;-77
2022/11/06 01:11:41;;;;;;;1999.90;999.90;;;8.20;99.90;;;;;;6769830;87;20225;-79
2022/11/06 01:21:44;;;;;;;1999.90;999.90;;;8.20;99.90;;;;;;6774715;87;20749;-76
2022/11/06 01:31:48;;;;;;;1999.90;999.90;;;8.20;99.90;;;;;;6776001;87;20227;-77
2022/11/06 01:41:51;;;;;;;1999.90;999.90;;;8.20;99.90;;;;;;6778098;87;20213;-77
2022/11/06 01:51:55;;;;;;;1999.90;999.90;;;8.10;99.90;;;;;;6775372;87;20290;-77
2022/11/06 02:01:55;;;;;;;1999.90;999.90;;;7.90;99.90;;;;;;6771157;87;20192;-77
2022/11/06 02:12:06;;;;;;;1999.90;999.90;;;7.90;99.90;;;;;;6778091;87;20217;-76
2022/11/06 02:42:57;;;;;;;1999.90;999.90;;;7.60;99.90;;;;;;6776965;87;20164;-78
2022/11/06 02:53:06;;;;;;;1999.90;999.90;;;7.50;99.90;;;;;;6775539;87;20262;-79
2022/11/06 03:03:16;;;;;;;1999.90;999.90;;;7.60;99.90;;;;;;6759176;87;20508;-78
2022/11/06 03:13:21;;;;;;;1999.90;999.90;;;7.90;99.90;;;;;;6774188;87;20184;-77
2022/11/06 03:23:32;;;;;;;1999.90;999.90;;;7.90;99.90;;;;;;6767649;87;20201;-78
2022/11/06 03:33:47;;;;;;;1999.90;999.90;;;7.80;99.90;;;;;;6778375;87;20184;-77
2022/11/06 03:43:53;;;;;;;1999.90;999.90;;;7.90;99.90;;;;;;6776149;87;20156;-78
2022/11/06 03:54:02;;;;;;;1999.90;999.90;;;7.80;99.90;;;;;;6768303;87;20183;-79
2022/11/06 04:04:18;;;;;;;1999.90;999.90;;;7.70;99.90;;;;;;6773635;87;20227;-79
2022/11/06 04:14:21;;;;;;;1999.90;999.90;;;7.60;99.90;;;;;;6768120;87;20188;-78
2022/11/06 04:35:09;;;;;;;1999.90;999.90;;;7.60;99.90;;;;;;6705512;87;20187;-77
2022/11/06 04:45:17;;;;;;;1999.90;999.90;;;7.60;99.90;;;;;;6703256;87;20183;-79
2022/11/06 04:55:18;;;;;;;1999.90;999.90;;;7.60;99.90;;;;;;6701270;87;20176;-79
2022/11/06 05:05:19;;;;;;;1999.90;999.90;;;7.60;99.90;;;;;;6701157;88;20191;-78
2022/11/06 05:15:19;;;;;;;1999.90;999.90;;;7.50;99.90;;;;;;6703047;87;20272;-78
2022/11/06 05:25:20;;;;;;;1999.90;999.90;;;7.50;99.90;;;;;;6706602;87;20320;-78
2022/11/06 05:35:20;;;;;;;1999.90;999.90;;;7.60;99.90;;;;;;6763891;87;20244;-79
2022/11/06 05:45:21;;;;;;;1999.90;999.90;;;7.70;99.90;;;;;;6766902;87;20410;-78
2022/11/06 05:55:21;;;;;;;1999.90;999.90;;;7.90;99.90;;;;;;6765806;87;20213;-79
2022/11/06 06:05:22;;;;;;;1999.90;999.90;;;8.00;99.90;;;;;;6759725;87;20223;-79
2022/11/06 06:15:23;;;;;;;1999.90;999.90;;;7.90;99.90;;;;;;6751634;87;20694;-79
2022/11/06 06:25:24;;;;;;;1999.90;999.90;;;7.80;99.90;;;;;;6764559;87;21203;-78
2022/11/06 06:35:24;;;;;;;1999.90;999.90;;;7.80;99.90;;;;;;6771303;87;21078;-78
2022/11/06 06:45:25;;;;;;;1999.90;999.90;;;7.80;99.90;;;;;;6774728;87;20192;-78
2022/11/06 06:55:26;;;;;;;1999.90;999.90;;;7.80;99.90;;;;;;6751706;87;20225;-78
2022/11/06 07:05:28;;;;;;;1999.90;999.90;;;7.80;99.90;;;;;;6695295;88;20298;-79
2022/11/06 07:15:29;;;;;;;1999.90;999.90;;;7.90;99.90;;;;;;6701114;87;20229;-79
2022/11/06 07:25:34;;;;;;;1999.90;999.90;;;8.10;99.90;;;;;;6704301;87;20248;-78
2022/11/06 07:35:45;;;;;;;1999.90;999.90;;;8.30;99.90;;;;;;6710532;87;20194;-79
2022/11/06 07:45:46;;;;;;;1999.90;999.90;;;8.40;99.90;;;;;;6713750;87;20350;-79
2022/11/06 07:55:51;;;;;;;1999.90;999.90;;;8.60;99.90;;;;;;6706774;87;20265;-80
2022/11/06 08:05:52;;;;;;;1999.90;999.90;;;8.90;99.90;;;;;;6706675;87;20251;-79
2022/11/06 08:15:52;;;;;;;1999.90;999.90;;;9.40;99.90;;;;;;6774883;87;20271;-79
2022/11/06 08:25:58;;;;;;;1999.90;999.90;;;9.60;99.90;;;;;;6750810;87;20187;-79
2022/11/06 08:57:11;;;;;;;1999.90;999.90;;;10.20;99.90;;;;;;6668522;88;20268;-77
2022/11/06 09:07:12;;;;;;;1999.90;999.90;;;10.30;99.90;;;;;;6665631;88;20505;-78
2022/11/06 09:17:12;;;;;;;1999.90;999.90;;;10.20;99.90;;;;;;6667715;89;20901;-78
2022/11/06 09:27:13;;;;;;;1999.90;999.90;;;10.60;99.90;;;;;;6666705;89;20270;-77
2022/11/06 09:37:13;;;;;;;1999.90;999.90;;;10.80;99.90;;;;;;6666543;89;20194;-78
2022/11/06 09:47:20;;;;;;;1999.90;999.90;;;10.50;99.90;;;;;;6661772;88;20199;-77
2022/11/06 09:57:41;;;;;;;1999.90;999.90;;;10.60;99.90;;;;;;6667012;89;20202;-77
2022/11/06 10:07:44;;;;;;;1999.90;999.90;;;11.40;99.90;;;;;;6648263;89;20225;-77
2022/11/06 10:18:22;;;;;;;1999.90;999.90;;;11.00;99.90;;;;;;6653055;89;20202;-77
2022/11/06 10:28:37;;;;;;;1999.90;999.90;;;11.10;99.90;;;;;;6652630;89;20240;-77
2022/11/06 10:38:42;;;;;;;1999.90;999.90;;;10.80;99.90;;;;;;6654285;89;20176;-78
2022/11/06 10:48:57;;;;;;;1999.90;999.90;;;10.70;99.90;;;;;;6652693;89;20614;-78
2022/11/06 10:58:58;;;;;;;1999.90;999.90;;;10.60;99.90;;;;;;6646774;89;20184;-78
2022/11/06 11:09:00;;;;;;;1999.90;999.90;;;10.90;99.90;;;;;;6653839;89;20359;-78
2022/11/06 11:19:25;;;;;;;1999.90;999.90;;;11.00;99.90;;;;;;6653836;89;20194;-79
2022/11/06 11:29:28;;;;;;;1999.90;999.90;;;11.10;99.90;;;;;;6652361;89;20276;-78
2022/11/06 11:39:34;;;;;;;1999.90;999.90;;;11.20;99.90;;;;;;6648480;89;20263;-78
2022/11/06 11:49:34;;;;;;;1999.90;999.90;;;11.30;99.90;;;;;;6654223;89;20193;-78
2022/11/06 11:59:45;;;;;;;1999.90;999.90;;;12.00;99.90;;;;;;6650354;89;20348;-79
2022/11/06 12:09:46;;;;;;;1999.90;999.90;;;13.30;99.90;;;;;;6648303;89;20311;-79
2022/11/06 12:19:53;;;;;;;1999.90;999.90;;;13.50;99.90;;;;;;6658071;89;20245;-79
2022/11/06 12:30:13;;;;;;;1999.90;999.90;;;13.40;99.90;;;;;;6657181;89;20717;-78
2022/11/06 12:40:58;;;;;;;1999.90;999.90;;;12.50;99.90;;;;;;6655076;89;20211;-78
2022/11/06 12:51:59;;;;;;;1999.90;999.90;;;12.50;99.90;;;;;;6662148;89;20217;-78
2022/11/06 13:02:16;;;;;;;1999.90;999.90;;;12.50;99.90;;;;;;6643048;89;20184;-78
2022/11/06 13:12:28;;;;;;;1999.90;999.90;;;12.50;99.90;;;;;;6653149;89;20199;-79
2022/11/06 13:22:41;;;;;;;1999.90;999.90;;;12.60;99.90;;;;;;6652466;89;20779;-77
2022/11/06 13:32:49;;;;;;;1999.90;999.90;;;12.30;99.90;;;;;;6658007;89;20209;-79
2022/11/06 13:43:04;;;;;;;1999.90;999.90;;;12.20;99.90;;;;;;6658252;88;20193;-78
2022/11/06 13:53:21;;;;;;;1999.90;999.90;;;12.20;99.90;;;;;;6655302;89;20322;-78
2022/11/06 14:03:40;;;;;;;1999.90;999.90;;;12.00;99.90;;;;;;6656457;89;20191;-78
2022/11/06 14:13:54;;;;;;;1999.90;999.90;;;11.70;99.90;;;;;;6658615;89;20165;-79
2022/11/06 14:24:13;;;;;;;1999.90;999.90;;;11.60;99.90;;;;;;6657469;89;20600;-78
2022/11/06 14:34:34;;;;;;;1999.90;999.90;;;11.50;99.90;;;;;;6659816;89;20210;-79
2022/11/06 14:44:42;;;;;;;1999.90;999.90;;;11.40;99.90;;;;;;6666553;88;20302;-78
2022/11/06 14:54:59;;;;;;;1999.90;999.90;;;11.40;99.90;;;;;;6685467;88;20209;-79
2022/11/06 15:05:06;;;;;;;1999.90;999.90;;;11.30;99.90;;;;;;6669097;89;20262;-78
2022/11/06 15:15:16;;;;;;;1999.90;999.90;;;11.20;99.90;;;;;;6676146;89;20185;-80
2022/11/06 15:25:22;;;;;;;1999.90;999.90;;;11.00;99.90;;;;;;6674674;89;20246;-81
2022/11/06 15:35:26;;;;;;;1999.90;999.90;;;10.90;99.90;;;;;;6671891;88;20882;-79
2022/11/06 15:45:28;;;;;;;1999.90;999.90;;;10.80;99.90;;;;;;6671028;88;20199;-79
2022/11/06 15:55:33;;;;;;;1999.90;999.90;;;10.80;99.90;;;;;;6663555;88;20221;-79
2022/11/06 16:05:36;;;;;;;1999.90;999.90;;;10.80;99.90;;;;;;6663420;89;20196;-79
2022/11/06 16:15:42;;;;;;;1999.90;999.90;;;10.70;99.90;;;;;;6664091;88;20207;-79
2022/11/06 16:25:43;;;;;;;1999.90;999.90;;;10.50;99.90;;;;;;6664873;89;20660;-78
2022/11/06 16:35:44;;;;;;;1999.90;999.90;;;9.80;99.90;;;;;;6674329;89;20266;-78
2022/11/06 16:45:56;;;;;;;1999.90;999.90;;;9.60;99.90;;;;;;6667198;89;20313;-77
2022/11/06 16:56:04;;;;;;;1999.90;999.90;;;9.50;99.90;;;;;;6654182;89;20640;-80
2022/11/06 17:06:16;;;;;;;1999.90;999.90;;;9.50;99.90;;;;;;6655751;89;20212;-77
2022/11/06 17:16:23;;;;;;;1999.90;999.90;;;9.50;99.90;;;;;;6655582;89;20623;-78
2022/11/06 17:26:31;;;;;;;1999.90;999.90;;;9.50;99.90;;;;;;6655426;89;20288;-79
2022/11/06 17:36:33;;;;;;;1999.90;999.90;;;9.40;99.90;;;;;;6654622;89;20654;-79
2022/11/06 17:46:36;;;;;;;1999.90;999.90;;;9.40;99.90;;;;;;6654221;89;20332;-79
2022/11/06 17:56:37;;;;;;;1999.90;999.90;;;9.40;99.90;;;;;;6654175;89;20284;-79
2022/11/06 18:06:38;;;;;;;1999.90;999.90;;;9.40;99.90;;;;;;6654273;89;20274;-79
2022/11/06 18:16:40;;;;;;;1999.90;999.90;;;9.40;99.90;;;;;;6655471;89;20226;-79
2022/11/06 18:26:40;;;;;;;1999.90;999.90;;;9.40;99.90;;;;;;6654654;89;21092;-78
2022/11/06 18:36:41;;;;;;;1999.90;999.90;;;9.50;99.90;;;;;;6659653;89;20576;-79
2022/11/06 18:46:42;;;;;;;1999.90;999.90;;;9.50;99.90;;;;;;6655081;89;20213;-79
2022/11/06 18:56:43;;;;;;;1999.90;999.90;;;9.50;99.90;;;;;;6652606;89;20301;-78
2022/11/06 19:06:43;;;;;;;1999.90;999.90;;;9.60;99.90;;;;;;6657647;89;20782;-78
2022/11/06 19:16:44;;;;;;;1999.90;999.90;;;9.70;99.90;;;;;;6660047;88;20227;-79
2022/11/06 19:26:46;;;;;;;1999.90;999.90;;;9.90;99.90;;;;;;6686492;88;20351;-79
2022/11/06 19:36:47;;;;;;;1999.90;999.90;;;10.10;99.90;;;;;;6689799;88;20652;-79
2022/11/06 19:46:47;;;;;;;1999.90;999.90;;;10.20;99.90;;;;;;6687718;88;20183;-78
2022/11/06 19:56:48;;;;;;;1999.90;999.90;;;10.20;99.90;;;;;;6691498;88;20217;-79
2022/11/06 20:06:48;;;;;;;1999.90;999.90;;;10.20;99.90;;;;;;6689605;88;20219;-80
2022/11/06 20:16:49;;;;;;;1999.90;999.90;;;10.20;99.90;;;;;;6685204;88;20194;-78
2022/11/06 20:26:49;;;;;;;1999.90;999.90;;;10.20;99.90;;;;;;6687875;88;20272;-79
2022/11/06 20:36:50;;;;;;;1999.90;999.90;;;10.10;99.90;;;;;;6687925;88;20201;-80
2022/11/06 20:46:50;;;;;;;1999.90;999.90;;;10.20;99.90;;;;;;6699344;88;20194;-79
2022/11/06 20:56:51;;;;;;;1999.90;999.90;;;10.30;99.90;;;;;;6702383;88;20194;-79
2022/11/06 21:06:54;;;;;;;1999.90;999.90;;;10.30;99.90;;;;;;6706187;88;20229;-78
2022/11/06 21:16:55;;;;;;;1999.90;999.90;;;10.30;99.90;;;;;;6686885;89;20190;-79
2022/11/06 21:26:56;;;;;;;1999.90;999.90;;;10.30;99.90;;;;;;6678175;89;20229;-80
2022/11/06 21:36:56;;;;;;;1999.90;999.90;;;10.40;99.90;;;;;;6670877;88;20208;-79
2022/11/06 21:46:57;;;;;;;1999.90;999.90;;;10.40;99.90;;;;;;6661881;89;20257;-78
2022/11/06 21:56:57;;;;;;;1999.90;999.90;;;10.40;99.90;;;;;;6664647;89;20196;-78
2022/11/06 22:06:58;;;;;;;1999.90;999.90;;;10.40;99.90;;;;;;6672657;89;20219;-79
2022/11/06 22:16:58;;;;;;;1999.90;999.90;;;10.50;99.90;;;;;;6727096;88;20234;-78
2022/11/06 22:26:59;;;;;;;1999.90;999.90;;;10.60;99.90;;;;;;6728756;88;20289;-79
2022/11/06 22:36:59;;;;;;;1999.90;999.90;;;10.60;99.90;;;;;;6675835;89;20216;-79
2022/11/06 22:47:00;;;;;;;1999.90;999.90;;;10.50;99.90;;;;;;6677743;89;20306;-79
2022/11/06 22:57:01;;;;;;;1999.90;999.90;;;10.60;99.90;;;;;;6671527;89;20213;-78
2022/11/06 23:07:01;;;;;;;1999.90;999.90;;;10.50;99.90;;;;;;6675641;89;20319;-80
2022/11/06 23:17:03;;;;;;;1999.90;999.90;;;10.30;99.90;;;;;;6660629;89;20184;-79
2022/11/06 23:27:04;;;;;;;1999.90;999.90;;;10.30;99.90;;;;;;6659223;89;20823;-79
2022/11/06 23:37:04;;;;;;;1999.90;999.90;;;10.30;99.90;;;;;;6658806;89;20199;-79
2022/11/06 23:47:05;;;;;;;1999.90;999.90;;;10.30;99.90;;;;;;6665090;88;20199;-79
2022/11/06 23:57:07;;;;;;;1999.90;999.90;;;10.50;99.90;;;;;;6674223;89;20198;-80
